Time;durP1;ratioP1;P1;durP2;ratioP2;P2;SDS_P1;SDS_P2;PMS_P1;PMS_P2;Temp;Humidity;BMP_temperature;BMP_pressure;BME280_temperature;BME280_humidity;BME280_pressure;Samples;Min_cycle;Max_cycle;Signal;HPM_P1;HPM_P2
2023/05/07 00:01:49;;;;;;;10.30;6.50;;;;;;;;;;5117058;28;20516;-70
2023/05/07 00:04:18;;;;;;;8.53;6.40;;;;;;;;;;5118077;28;20884;-69
2023/05/07 00:06:46;;;;;;;9.63;6.40;;;;;;;;;;5118844;28;20451;-68
2023/05/07 00:09:16;;;;;;;8.30;5.77;;;;;;;;;;5117019;28;20466;-70
2023/05/07 00:11:45;;;;;;;8.00;6.10;;;;;;;;;;5098800;28;20532;-68
2023/05/07 00:14:13;;;;;;;7.40;5.90;;;;;;;;;;5118925;28;20547;-70
2023/05/07 00:16:43;;;;;;;8.57;6.47;;;;;;;;;;5118229;28;20443;-68
2023/05/07 00:19:12;;;;;;;9.53;7.80;;;;;;;;;;5111093;28;20844;-68
2023/05/07 00:21:40;;;;;;;8.60;6.10;;;;;;;;;;5118023;28;20479;-68
2023/05/07 00:24:18;;;;;;;9.90;6.37;;;;;;;;;;5120117;28;20764;-69
2023/05/07 00:26:49;;;;;;;9.37;6.07;;;;;;;;;;5118865;28;20846;-69
2023/05/07 00:29:18;;;;;;;8.37;6.00;;;;;;;;;;5119274;28;20863;-69
2023/05/07 00:31:49;;;;;;;7.47;5.70;;;;;;;;;;5119199;28;20580;-68
2023/05/07 00:34:18;;;;;;;9.73;5.83;;;;;;;;;;5118758;28;20799;-69
2023/05/07 00:36:48;;;;;;;8.50;6.63;;;;;;;;;;5118446;28;20443;-68
2023/05/07 00:39:18;;;;;;;7.40;5.90;;;;;;;;;;5118905;28;20524;-68
2023/05/07 00:41:47;;;;;;;6.70;5.70;;;;;;;;;;5116828;28;20453;-74
2023/05/07 00:44:22;;;;;;;7.30;5.80;;;;;;;;;;5117690;28;20451;-68
2023/05/07 00:46:57;;;;;;;8.67;5.20;;;;;;;;;;5116190;28;20462;-69
2023/05/07 00:49:34;;;;;;;7.20;5.23;;;;;;;;;;5118116;28;20857;-69
2023/05/07 00:52:03;;;;;;;10.40;6.00;;;;;;;;;;5118239;28;20471;-69
2023/05/07 00:54:33;;;;;;;8.37;6.43;;;;;;;;;;5117324;28;20479;-68
2023/05/07 00:57:02;;;;;;;7.17;5.83;;;;;;;;;;5114154;28;20512;-69
2023/05/07 00:59:31;;;;;;;7.37;5.43;;;;;;;;;;5117282;28;20520;-69
2023/05/07 01:02:03;;;;;;;8.50;5.87;;;;;;;;;;5116705;28;20459;-69
2023/05/07 01:04:37;;;;;;;6.57;5.83;;;;;;;;;;5117712;28;20560;-69
2023/05/07 01:07:09;;;;;;;7.50;5.90;;;;;;;;;;5112813;28;20438;-68
2023/05/07 01:09:37;;;;;;;6.40;5.77;;;;;;;;;;5117284;28;20504;-69
2023/05/07 01:12:16;;;;;;;7.80;6.23;;;;;;;;;;5118957;28;20447;-68
2023/05/07 01:14:45;;;;;;;7.80;5.70;;;;;;;;;;5117110;28;20569;-70
2023/05/07 01:17:15;;;;;;;9.40;6.30;;;;;;;;;;5119755;28;20454;-70
2023/05/07 01:19:43;;;;;;;7.90;6.40;;;;;;;;;;5118438;28;20811;-68
2023/05/07 01:22:19;;;;;;;9.80;6.00;;;;;;;;;;5117022;28;20463;-68
2023/05/07 01:24:49;;;;;;;7.77;6.33;;;;;;;;;;5118010;28;20466;-68
2023/05/07 01:27:18;;;;;;;7.80;6.60;;;;;;;;;;5117499;28;20465;-69
2023/05/07 01:29:47;;;;;;;7.10;5.83;;;;;;;;;;5118715;28;20455;-68
2023/05/07 01:32:16;;;;;;;7.97;6.43;;;;;;;;;;5117516;28;20907;-69
2023/05/07 01:34:46;;;;;;;8.30;7.07;;;;;;;;;;5118147;28;20487;-68
2023/05/07 01:37:16;;;;;;;9.70;7.20;;;;;;;;;;5117661;28;20451;-69
2023/05/07 01:39:45;;;;;;;7.30;6.00;;;;;;;;;;5118545;28;20983;-68
2023/05/07 01:42:20;;;;;;;9.00;6.87;;;;;;;;;;5105165;28;20514;-69
2023/05/07 01:44:49;;;;;;;8.77;6.93;;;;;;;;;;5118520;28;20457;-68
2023/05/07 01:47:18;;;;;;;7.20;6.43;;;;;;;;;;5118278;28;20520;-68
2023/05/07 01:49:47;;;;;;;7.50;6.53;;;;;;;;;;5116470;28;20862;-69
2023/05/07 01:52:16;;;;;;;6.20;5.60;;;;;;;;;;5098828;28;20459;-69
2023/05/07 01:54:45;;;;;;;7.73;6.60;;;;;;;;;;5096052;28;20491;-69
2023/05/07 01:57:14;;;;;;;7.87;6.73;;;;;;;;;;5097508;28;20528;-69
2023/05/07 01:59:44;;;;;;;8.60;6.83;;;;;;;;;;5103608;28;20455;-69
2023/05/07 02:02:18;;;;;;;8.20;7.20;;;;;;;;;;5116152;28;20918;-71
2023/05/07 02:04:50;;;;;;;10.10;7.27;;;;;;;;;;5117046;28;20541;-69
2023/05/07 02:07:22;;;;;;;7.93;5.83;;;;;;;;;;5116000;28;20534;-70
2023/05/07 02:09:55;;;;;;;9.53;7.87;;;;;;;;;;5117830;28;20482;-70
2023/05/07 02:12:24;;;;;;;8.80;6.73;;;;;;;;;;5120261;28;20451;-69
2023/05/07 02:14:55;;;;;;;9.20;7.27;;;;;;;;;;5119288;28;20536;-67
2023/05/07 02:17:24;;;;;;;8.43;7.00;;;;;;;;;;5120365;28;20466;-69
2023/05/07 02:19:53;;;;;;;9.80;7.27;;;;;;;;;;5120039;28;20455;-70
2023/05/07 02:22:22;;;;;;;8.63;7.40;;;;;;;;;;5120322;28;20463;-67
2023/05/07 02:24:50;;;;;;;11.10;7.53;;;;;;;;;;5122007;28;20482;-69
2023/05/07 02:27:21;;;;;;;9.53;7.20;;;;;;;;;;5119920;28;20455;-69
2023/05/07 02:29:52;;;;;;;13.50;7.87;;;;;;;;;;5121315;28;20490;-69
2023/05/07 02:32:23;;;;;;;10.97;7.63;;;;;;;;;;5121078;28;20443;-69
2023/05/07 02:34:53;;;;;;;7.67;6.87;;;;;;;;;;5119854;28;20514;-69
2023/05/07 02:37:23;;;;;;;8.90;7.80;;;;;;;;;;5120143;28;20526;-69
2023/05/07 02:39:53;;;;;;;13.27;8.97;;;;;;;;;;5120163;28;20495;-68
2023/05/07 02:42:46;;;;;;;11.73;8.30;;;;;;;;;;5120666;28;20481;-68
2023/05/07 02:45:14;;;;;;;9.27;7.30;;;;;;;;;;5120501;28;20458;-69
2023/05/07 02:47:44;;;;;;;11.30;8.10;;;;;;;;;;5119671;28;20884;-68
2023/05/07 02:50:18;;;;;;;9.43;7.63;;;;;;;;;;5119361;28;20566;-68
2023/05/07 02:52:47;;;;;;;10.33;7.50;;;;;;;;;;5120734;28;20796;-67
2023/05/07 02:55:15;;;;;;;9.37;7.67;;;;;;;;;;5118831;28;20478;-70
2023/05/07 02:57:46;;;;;;;9.90;8.10;;;;;;;;;;5119266;28;20498;-69
2023/05/07 03:00:16;;;;;;;10.83;7.90;;;;;;;;;;5118608;28;20452;-69
2023/05/07 03:02:46;;;;;;;11.67;7.97;;;;;;;;;;5118903;28;20489;-69
2023/05/07 03:05:14;;;;;;;11.67;8.13;;;;;;;;;;5119102;28;20871;-68
2023/05/07 03:07:48;;;;;;;10.83;7.80;;;;;;;;;;5118840;28;20676;-70
2023/05/07 03:10:16;;;;;;;10.30;9.27;;;;;;;;;;5118264;28;20476;-69
2023/05/07 03:12:44;;;;;;;10.13;7.43;;;;;;;;;;5118569;28;20644;-68
2023/05/07 03:15:13;;;;;;;10.17;7.20;;;;;;;;;;5116762;28;20479;-69
2023/05/07 03:17:41;;;;;;;8.70;7.20;;;;;;;;;;5118360;28;20463;-69
2023/05/07 03:20:13;;;;;;;8.20;6.67;;;;;;;;;;5117370;28;20804;-69
2023/05/07 03:22:41;;;;;;;9.37;7.33;;;;;;;;;;5119818;28;20447;-69
2023/05/07 03:25:10;;;;;;;11.57;7.47;;;;;;;;;;5119092;28;20455;-71
2023/05/07 03:27:39;;;;;;;10.00;6.97;;;;;;;;;;5118688;28;20818;-68
2023/05/07 03:30:12;;;;;;;11.03;7.93;;;;;;;;;;5120656;28;20447;-69
2023/05/07 03:32:41;;;;;;;10.67;7.83;;;;;;;;;;5121297;28;20852;-69
2023/05/07 03:35:12;;;;;;;10.10;8.17;;;;;;;;;;5119621;28;20479;-70
2023/05/07 03:37:41;;;;;;;10.73;8.00;;;;;;;;;;5118809;28;20455;-70
2023/05/07 03:40:12;;;;;;;11.47;7.33;;;;;;;;;;5103777;28;20883;-69
2023/05/07 03:42:40;;;;;;;12.10;8.67;;;;;;;;;;5118687;28;20451;-71
2023/05/07 03:45:09;;;;;;;11.97;7.93;;;;;;;;;;5118615;28;20447;-69
2023/05/07 03:47:40;;;;;;;11.20;7.63;;;;;;;;;;5120413;28;20455;-67
2023/05/07 03:50:16;;;;;;;12.97;9.00;;;;;;;;;;5119225;28;20473;-69
2023/05/07 03:52:45;;;;;;;11.07;8.10;;;;;;;;;;5119157;28;20473;-69
2023/05/07 03:55:13;;;;;;;10.33;8.47;;;;;;;;;;5117072;28;20491;-69
2023/05/07 03:57:42;;;;;;;8.53;7.30;;;;;;;;;;5098958;28;20583;-69
2023/05/07 04:00:11;;;;;;;9.37;7.37;;;;;;;;;;5098750;28;20506;-70
2023/05/07 04:02:40;;;;;;;11.37;8.50;;;;;;;;;;5099198;28;20452;-69
2023/05/07 04:05:09;;;;;;;11.70;7.87;;;;;;;;;;5097776;28;20452;-69
2023/05/07 04:07:40;;;;;;;9.47;7.53;;;;;;;;;;5098409;28;20539;-69
2023/05/07 04:10:22;;;;;;;10.33;7.33;;;;;;;;;;5098301;28;20878;-70
2023/05/07 04:12:53;;;;;;;16.13;7.90;;;;;;;;;;5105974;28;20468;-69
2023/05/07 04:15:21;;;;;;;10.00;7.67;;;;;;;;;;5118144;28;20870;-68
2023/05/07 04:17:50;;;;;;;11.47;8.27;;;;;;;;;;5118892;28;20458;-69
2023/05/07 04:20:22;;;;;;;10.90;7.07;;;;;;;;;;5118417;28;20451;-68
2023/05/07 04:22:53;;;;;;;12.30;7.70;;;;;;;;;;5118644;28;20740;-69
2023/05/07 04:25:22;;;;;;;10.17;7.53;;;;;;;;;;5117440;28;20443;-69
2023/05/07 04:27:50;;;;;;;9.43;7.17;;;;;;;;;;5116686;28;20474;-69
2023/05/07 04:30:18;;;;;;;10.63;7.77;;;;;;;;;;5117889;28;20854;-69
2023/05/07 04:32:47;;;;;;;11.80;8.10;;;;;;;;;;5116479;28;20459;-68
2023/05/07 04:35:21;;;;;;;11.00;7.87;;;;;;;;;;5112555;28;20491;-69
2023/05/07 04:37:50;;;;;;;10.57;8.60;;;;;;;;;;5115960;28;20552;-68
2023/05/07 04:40:23;;;;;;;9.93;7.23;;;;;;;;;;5117125;28;20477;-68
2023/05/07 04:42:51;;;;;;;10.07;7.03;;;;;;;;;;5117749;28;20526;-69
2023/05/07 04:45:20;;;;;;;9.70;6.10;;;;;;;;;;5117914;28;20475;-68
2023/05/07 04:47:48;;;;;;;8.40;6.03;;;;;;;;;;5118180;28;20458;-69
2023/05/07 04:50:18;;;;;;;9.37;7.53;;;;;;;;;;5107965;28;20741;-68
2023/05/07 04:52:47;;;;;;;9.67;7.03;;;;;;;;;;5099354;28;20456;-70
2023/05/07 04:55:15;;;;;;;9.87;7.10;;;;;;;;;;5098255;28;20547;-71
2023/05/07 04:57:46;;;;;;;9.37;6.53;;;;;;;;;;5098322;28;20463;-69
2023/05/07 05:00:14;;;;;;;9.93;6.47;;;;;;;;;;5098800;28;20448;-70
2023/05/07 05:02:44;;;;;;;8.60;6.10;;;;;;;;;;5098128;28;20468;-68
2023/05/07 05:05:13;;;;;;;10.67;7.73;;;;;;;;;;5097657;28;20478;-69
2023/05/07 05:07:41;;;;;;;8.13;6.50;;;;;;;;;;5113117;28;20451;-68
2023/05/07 05:10:14;;;;;;;8.80;7.53;;;;;;;;;;5119064;28;20451;-69
2023/05/07 05:12:42;;;;;;;10.30;6.60;;;;;;;;;;5119341;28;20855;-68
2023/05/07 05:15:13;;;;;;;10.73;7.93;;;;;;;;;;5118640;28;20488;-69
2023/05/07 05:17:41;;;;;;;8.70;6.70;;;;;;;;;;5117932;28;20537;-69
2023/05/07 05:20:14;;;;;;;8.23;5.77;;;;;;;;;;5117220;28;20531;-69
2023/05/07 05:22:43;;;;;;;9.93;7.57;;;;;;;;;;5119261;28;20542;-69
2023/05/07 05:25:12;;;;;;;9.83;6.77;;;;;;;;;;5118025;28;20470;-69
2023/05/07 05:27:40;;;;;;;11.07;7.70;;;;;;;;;;5117992;28;20483;-69
2023/05/07 05:30:18;;;;;;;9.10;6.80;;;;;;;;;;5118633;28;20447;-69
2023/05/07 05:32:46;;;;;;;7.60;6.10;;;;;;;;;;5118541;28;20550;-69
2023/05/07 05:35:14;;;;;;;9.33;7.70;;;;;;;;;;5118768;28;20898;-69
2023/05/07 05:37:44;;;;;;;8.20;6.20;;;;;;;;;;5118109;28;20495;-69
2023/05/07 05:40:14;;;;;;;8.83;6.83;;;;;;;;;;5119548;28;20526;-69
2023/05/07 05:42:42;;;;;;;9.40;6.70;;;;;;;;;;5118414;28;20453;-68
2023/05/07 05:45:11;;;;;;;7.73;6.53;;;;;;;;;;5102667;28;20460;-68
2023/05/07 05:47:41;;;;;;;14.63;7.23;;;;;;;;;;5099963;28;20456;-68
2023/05/07 05:50:12;;;;;;;8.80;5.97;;;;;;;;;;5097537;28;20551;-70
2023/05/07 05:52:40;;;;;;;8.10;6.33;;;;;;;;;;5099298;28;20575;-69
2023/05/07 05:55:12;;;;;;;7.50;5.90;;;;;;;;;;5100212;28;20475;-69
2023/05/07 05:57:40;;;;;;;10.50;6.60;;;;;;;;;;5098550;28;20456;-68
2023/05/07 06:00:11;;;;;;;9.47;6.23;;;;;;;;;;5098942;28;20548;-69
2023/05/07 06:02:39;;;;;;;9.60;6.43;;;;;;;;;;5107071;28;20483;-68
2023/05/07 06:05:15;;;;;;;8.93;6.57;;;;;;;;;;5118300;28;20443;-69
2023/05/07 06:07:43;;;;;;;10.17;6.50;;;;;;;;;;5119826;28;20463;-69
2023/05/07 06:10:14;;;;;;;12.00;6.27;;;;;;;;;;5106615;28;20448;-68
2023/05/07 06:12:42;;;;;;;10.60;7.57;;;;;;;;;;5100592;28;20516;-68
2023/05/07 06:15:10;;;;;;;8.77;6.47;;;;;;;;;;5101109;28;20484;-67
2023/05/07 06:17:39;;;;;;;10.07;7.00;;;;;;;;;;5100382;28;20466;-69
2023/05/07 06:20:15;;;;;;;12.30;7.37;;;;;;;;;;5100117;28;20482;-70
2023/05/07 06:22:43;;;;;;;12.80;8.13;;;;;;;;;;5103852;28;20466;-70
2023/05/07 06:25:12;;;;;;;10.30;7.40;;;;;;;;;;5100476;28;20478;-67
2023/05/07 06:27:40;;;;;;;9.80;6.10;;;;;;;;;;5098976;28;20459;-69
2023/05/07 06:30:13;;;;;;;11.87;7.20;;;;;;;;;;5099103;28;20543;-68
2023/05/07 06:32:42;;;;;;;13.90;6.80;;;;;;;;;;5098591;28;20780;-69
2023/05/07 06:35:14;;;;;;;8.20;6.20;;;;;;;;;;5100157;28;20521;-68
2023/05/07 06:37:45;;;;;;;7.00;5.33;;;;;;;;;;5111207;28;20478;-69
2023/05/07 06:40:16;;;;;;;7.60;6.07;;;;;;;;;;5120664;28;20449;-69
2023/05/07 06:42:44;;;;;;;10.90;6.27;;;;;;;;;;5120828;28;20459;-69
2023/05/07 06:45:15;;;;;;;7.50;5.87;;;;;;;;;;5119731;28;20447;-69
2023/05/07 06:47:45;;;;;;;10.67;5.87;;;;;;;;;;5121064;28;20455;-70
2023/05/07 06:50:20;;;;;;;7.67;5.67;;;;;;;;;;5119895;27;20443;-69
2023/05/07 06:52:56;;;;;;;7.50;6.30;;;;;;;;;;5120332;28;20921;-68
2023/05/07 06:55:31;;;;;;;8.23;6.13;;;;;;;;;;5118735;28;20931;-68
2023/05/07 06:58:00;;;;;;;7.40;5.93;;;;;;;;;;5121367;28;20707;-69
2023/05/07 07:00:34;;;;;;;10.40;6.27;;;;;;;;;;5119946;28;20966;-69
2023/05/07 07:03:03;;;;;;;8.07;5.93;;;;;;;;;;5121121;28;20533;-68
2023/05/07 07:05:34;;;;;;;9.47;6.10;;;;;;;;;;5119025;28;20458;-70
2023/05/07 07:08:02;;;;;;;7.33;6.47;;;;;;;;;;5119826;28;20513;-68
2023/05/07 07:10:31;;;;;;;8.10;5.80;;;;;;;;;;5117031;28;20447;-70
2023/05/07 07:12:59;;;;;;;7.07;5.27;;;;;;;;;;5117975;28;20466;-69
2023/05/07 07:15:28;;;;;;;7.13;5.87;;;;;;;;;;5117095;28;20538;-70
2023/05/07 07:17:57;;;;;;;6.97;5.20;;;;;;;;;;5115816;28;20455;-69
2023/05/07 07:20:27;;;;;;;5.00;4.50;;;;;;;;;;5118877;28;20542;-69
2023/05/07 07:22:57;;;;;;;7.03;5.43;;;;;;;;;;5119087;28;20458;-69
2023/05/07 07:25:26;;;;;;;7.20;5.40;;;;;;;;;;5118809;28;20480;-69
2023/05/07 07:27:59;;;;;;;6.50;5.80;;;;;;;;;;5117922;28;20459;-72
2023/05/07 07:30:29;;;;;;;7.70;5.23;;;;;;;;;;5104137;28;20834;-70
2023/05/07 07:33:02;;;;;;;5.87;4.50;;;;;;;;;;5106093;28;20890;-68
2023/05/07 07:35:32;;;;;;;9.07;4.63;;;;;;;;;;5112818;28;20462;-69
2023/05/07 07:38:04;;;;;;;7.27;6.03;;;;;;;;;;5111190;28;20478;-69
2023/05/07 07:40:39;;;;;;;7.47;5.67;;;;;;;;;;5117017;28;20451;-69
2023/05/07 07:43:08;;;;;;;5.50;4.47;;;;;;;;;;5116438;28;20451;-68
2023/05/07 07:45:36;;;;;;;5.60;4.63;;;;;;;;;;5115478;28;20435;-69
2023/05/07 07:48:06;;;;;;;5.80;4.97;;;;;;;;;;5116262;28;20455;-69
2023/05/07 07:50:35;;;;;;;6.70;4.57;;;;;;;;;;5116441;28;20474;-69
2023/05/07 07:53:06;;;;;;;7.20;4.30;;;;;;;;;;5117379;28;20455;-69
2023/05/07 07:55:35;;;;;;;5.67;4.40;;;;;;;;;;5115826;28;20508;-69
2023/05/07 07:58:09;;;;;;;8.60;5.10;;;;;;;;;;5116807;28;20455;-70
2023/05/07 08:00:44;;;;;;;7.00;4.50;;;;;;;;;;5100965;28;20503;-69
2023/05/07 08:03:17;;;;;;;6.03;4.73;;;;;;;;;;5118527;28;20458;-70
2023/05/07 08:05:51;;;;;;;6.60;5.57;;;;;;;;;;5117838;28;20451;-70
2023/05/07 08:08:27;;;;;;;6.37;5.03;;;;;;;;;;5116882;28;20455;-71
2023/05/07 08:10:59;;;;;;;5.90;4.73;;;;;;;;;;5116408;28;20450;-69
2023/05/07 08:13:36;;;;;;;7.83;5.20;;;;;;;;;;5115894;28;20472;-69
2023/05/07 08:16:05;;;;;;;7.13;5.37;;;;;;;;;;5114119;28;20482;-69
2023/05/07 08:18:34;;;;;;;6.47;5.20;;;;;;;;;;5114674;28;20459;-70
2023/05/07 08:21:03;;;;;;;9.00;6.13;;;;;;;;;;5115136;28;20492;-69
2023/05/07 08:23:36;;;;;;;7.17;5.30;;;;;;;;;;5096200;28;20476;-70
2023/05/07 08:26:13;;;;;;;6.03;5.30;;;;;;;;;;5110750;28;20447;-69
2023/05/07 08:28:42;;;;;;;8.93;6.87;;;;;;;;;;5114717;28;20469;-69
2023/05/07 08:31:13;;;;;;;8.50;5.43;;;;;;;;;;5116943;28;20451;-72
2023/05/07 08:33:41;;;;;;;7.07;5.70;;;;;;;;;;5115955;28;20490;-68
2023/05/07 08:36:13;;;;;;;6.30;5.60;;;;;;;;;;5114223;28;20887;-68
2023/05/07 08:38:49;;;;;;;10.07;6.67;;;;;;;;;;5107613;28;20475;-70
2023/05/07 08:41:18;;;;;;;9.50;5.57;;;;;;;;;;5095186;28;20448;-70
2023/05/07 08:43:50;;;;;;;8.60;5.70;;;;;;;;;;5095584;28;20456;-68
2023/05/07 08:46:23;;;;;;;8.70;5.97;;;;;;;;;;5114243;28;20918;-68
2023/05/07 08:51:35;;;;;;;9.57;6.53;;;;;;;;;;5111069;28;20778;-71
2023/05/07 08:54:14;;;;;;;11.03;6.80;;;;;;;;;;5114292;28;20862;-71
2023/05/07 08:56:45;;;;;;;7.77;6.03;;;;;;;;;;5105542;28;20945;-69
2023/05/07 08:59:15;;;;;;;9.63;5.67;;;;;;;;;;5093529;28;21066;-71
2023/05/07 09:01:44;;;;;;;7.33;5.57;;;;;;;;;;5074331;28;20546;-69
2023/05/07 09:04:15;;;;;;;9.23;6.13;;;;;;;;;;5075918;28;20454;-70
2023/05/07 09:06:45;;;;;;;7.73;5.70;;;;;;;;;;5074201;28;20465;-70
2023/05/07 09:09:29;;;;;;;7.70;5.77;;;;;;;;;;5076558;28;20524;-70
2023/05/07 09:12:01;;;;;;;7.07;5.87;;;;;;;;;;5074357;28;20554;-69
2023/05/07 09:14:34;;;;;;;8.43;6.97;;;;;;;;;;5076184;28;20442;-69
2023/05/07 09:17:06;;;;;;;9.30;6.50;;;;;;;;;;5090152;28;20888;-70
2023/05/07 09:19:37;;;;;;;8.50;5.80;;;;;;;;;;5095522;28;20498;-69
2023/05/07 09:22:14;;;;;;;9.40;7.80;;;;;;;;;;5097277;28;20448;-70
2023/05/07 09:24:58;;;;;;;7.20;6.10;;;;;;;;;;5100100;28;20527;-69
2023/05/07 09:27:31;;;;;;;7.97;6.63;;;;;;;;;;5095468;28;20962;-68
2023/05/07 09:30:10;;;;;;;8.67;6.40;;;;;;;;;;5098124;28;20728;-69
2023/05/07 09:32:53;;;;;;;7.97;6.10;;;;;;;;;;5097219;28;20468;-69
2023/05/07 09:35:24;;;;;;;12.20;8.33;;;;;;;;;;5093222;28;20539;-70
2023/05/07 09:37:57;;;;;;;8.53;5.73;;;;;;;;;;5086876;28;20890;-69
2023/05/07 09:40:28;;;;;;;9.43;7.00;;;;;;;;;;5076811;28;20487;-70
2023/05/07 09:43:11;;;;;;;8.07;5.67;;;;;;;;;;5092268;28;20468;-70
2023/05/07 09:45:51;;;;;;;9.93;6.80;;;;;;;;;;5097095;28;20504;-71
2023/05/07 09:48:19;;;;;;;9.77;7.00;;;;;;;;;;5096450;28;20853;-68
2023/05/07 09:50:51;;;;;;;8.83;6.10;;;;;;;;;;5097819;28;20499;-69
2023/05/07 09:53:22;;;;;;;8.40;6.27;;;;;;;;;;5095755;28;20538;-69
2023/05/07 09:55:53;;;;;;;6.77;6.00;;;;;;;;;;5075249;28;20457;-68
2023/05/07 09:58:25;;;;;;;8.37;5.93;;;;;;;;;;5082815;28;20891;-69
2023/05/07 10:00:55;;;;;;;7.17;5.83;;;;;;;;;;5095993;28;20459;-69
2023/05/07 10:03:24;;;;;;;8.50;6.27;;;;;;;;;;5095449;28;20622;-69
2023/05/07 10:06:02;;;;;;;8.30;6.97;;;;;;;;;;5089145;28;20510;-69
2023/05/07 10:08:33;;;;;;;8.33;5.60;;;;;;;;;;5078931;28;20528;-69
2023/05/07 10:11:07;;;;;;;7.00;4.73;;;;;;;;;;5074586;28;20445;-70
2023/05/07 10:13:37;;;;;;;8.60;5.90;;;;;;;;;;5092615;28;20543;-68
2023/05/07 10:16:08;;;;;;;7.90;6.07;;;;;;;;;;5095525;28;20452;-68
2023/05/07 10:18:39;;;;;;;8.00;6.17;;;;;;;;;;5095928;28;20466;-69
2023/05/07 10:21:14;;;;;;;8.57;5.40;;;;;;;;;;5095128;28;20458;-70
2023/05/07 10:23:43;;;;;;;7.53;6.10;;;;;;;;;;5097161;28;20538;-69
2023/05/07 10:26:16;;;;;;;7.93;6.30;;;;;;;;;;5096045;28;20451;-70
2023/05/07 10:28:47;;;;;;;6.20;5.30;;;;;;;;;;5096106;28;20490;-68
2023/05/07 10:31:21;;;;;;;9.30;5.90;;;;;;;;;;5095047;28;20448;-70
2023/05/07 10:33:51;;;;;;;9.37;6.83;;;;;;;;;;5096167;28;20464;-69
2023/05/07 10:36:26;;;;;;;15.93;6.43;;;;;;;;;;5095881;28;20467;-69
2023/05/07 10:39:07;;;;;;;8.33;6.63;;;;;;;;;;5092208;28;20556;-70
2023/05/07 10:41:40;;;;;;;9.27;6.40;;;;;;;;;;5078634;28;20948;-69
2023/05/07 10:44:23;;;;;;;8.37;5.30;;;;;;;;;;5075421;28;20473;-69
2023/05/07 10:47:08;;;;;;;7.37;6.07;;;;;;;;;;5081267;28;20791;-70
2023/05/07 10:49:38;;;;;;;7.40;5.60;;;;;;;;;;5073748;28;20467;-69
2023/05/07 10:52:25;;;;;;;8.20;5.80;;;;;;;;;;5074365;28;20449;-70
2023/05/07 10:55:14;;;;;;;9.40;5.10;;;;;;;;;;5073885;28;20804;-68
2023/05/07 10:57:53;;;;;;;8.00;6.07;;;;;;;;;;5076143;28;20480;-69
2023/05/07 11:00:40;;;;;;;6.70;5.30;;;;;;;;;;5056884;28;20449;-70
2023/05/07 11:03:09;;;;;;;8.83;5.80;;;;;;;;;;5092946;28;20869;-67
2023/05/07 11:05:39;;;;;;;6.67;5.00;;;;;;;;;;5091080;28;20455;-69
2023/05/07 11:08:09;;;;;;;6.23;5.00;;;;;;;;;;5091667;28;20439;-68
2023/05/07 11:10:55;;;;;;;6.30;5.63;;;;;;;;;;5091534;28;20944;-69
2023/05/07 11:13:38;;;;;;;11.13;6.43;;;;;;;;;;5093063;28;20459;-69
2023/05/07 11:16:18;;;;;;;6.50;4.60;;;;;;;;;;5090681;28;20555;-69
2023/05/07 11:18:50;;;;;;;9.03;6.30;;;;;;;;;;5089473;28;20484;-69
2023/05/07 11:21:35;;;;;;;6.80;5.27;;;;;;;;;;5089066;28;20456;-69
2023/05/07 11:26:50;;;;;;;7.13;5.23;;;;;;;;;;5095016;28;20440;-68
2023/05/07 11:29:21;;;;;;;6.20;5.43;;;;;;;;;;5095207;28;20484;-70
2023/05/07 11:31:53;;;;;;;6.03;4.70;;;;;;;;;;5089793;28;20460;-68
2023/05/07 11:34:25;;;;;;;7.30;5.60;;;;;;;;;;5072458;28;20518;-69
2023/05/07 11:36:55;;;;;;;6.20;5.60;;;;;;;;;;5069898;28;20489;-68
2023/05/07 11:39:31;;;;;;;6.43;4.70;;;;;;;;;;5083224;28;20444;-68
2023/05/07 11:42:00;;;;;;;7.03;4.60;;;;;;;;;;5089343;28;20494;-68
2023/05/07 11:44:43;;;;;;;5.87;4.00;;;;;;;;;;5093283;28;20463;-69
2023/05/07 11:47:19;;;;;;;5.70;4.83;;;;;;;;;;5092070;28;20917;-68
2023/05/07 11:49:49;;;;;;;6.40;4.30;;;;;;;;;;5094702;28;20463;-68
2023/05/07 11:52:18;;;;;;;5.20;3.90;;;;;;;;;;5093584;28;20456;-68
2023/05/07 11:54:54;;;;;;;5.40;3.93;;;;;;;;;;5092580;28;20835;-69
2023/05/07 11:57:27;;;;;;;7.07;4.17;;;;;;;;;;5093310;28;20962;-70
2023/05/07 12:00:07;;;;;;;4.93;3.60;;;;;;;;;;5095571;28;20444;-69
2023/05/07 12:02:40;;;;;;;4.03;3.23;;;;;;;;;;5089227;28;20468;-69
2023/05/07 12:05:09;;;;;;;4.67;3.77;;;;;;;;;;5093604;28;20458;-69
2023/05/07 12:07:46;;;;;;;5.70;3.97;;;;;;;;;;5090176;28;20455;-69
2023/05/07 12:10:38;;;;;;;4.50;3.67;;;;;;;;;;5093455;28;20882;-69
2023/05/07 12:16:39;;;;;;;5.77;3.93;;;;;;;;;;5070020;28;20457;-69
2023/05/07 12:19:31;;;;;;;6.90;4.97;;;;;;;;;;5072649;28;20477;-69
2023/05/07 12:24:53;;;;;;;9.87;5.03;;;;;;;;;;5071676;28;20480;-69
2023/05/07 12:27:27;;;;;;;6.73;4.90;;;;;;;;;;5079385;28;20452;-69
2023/05/07 12:30:00;;;;;;;6.20;4.27;;;;;;;;;;5093260;28;20866;-70
2023/05/07 12:32:49;;;;;;;8.50;4.37;;;;;;;;;;5090452;28;20456;-70
2023/05/07 12:35:21;;;;;;;4.80;3.33;;;;;;;;;;5072953;28;20655;-70
2023/05/07 12:37:59;;;;;;;5.93;3.80;;;;;;;;;;5072353;28;20491;-71
2023/05/07 12:40:41;;;;;;;4.50;3.13;;;;;;;;;;5075985;28;20544;-69
2023/05/07 12:43:21;;;;;;;3.47;2.97;;;;;;;;;;5075496;28;20465;-71
2023/05/07 12:45:55;;;;;;;5.00;3.60;;;;;;;;;;5070680;28;21069;-70
2023/05/07 12:48:28;;;;;;;5.70;3.27;;;;;;;;;;5088943;28;20460;-69
2023/05/07 12:50:59;;;;;;;4.10;3.20;;;;;;;;;;5088074;28;20934;-70
2023/05/07 12:53:33;;;;;;;3.90;2.87;;;;;;;;;;5088811;28;20464;-70
2023/05/07 12:56:04;;;;;;;5.87;4.60;;;;;;;;;;5089185;28;20456;-71
2023/05/07 12:58:35;;;;;;;6.60;3.90;;;;;;;;;;5089471;28;20987;-70
2023/05/07 13:01:09;;;;;;;3.60;3.00;;;;;;;;;;5089844;28;20503;-69
2023/05/07 13:03:38;;;;;;;4.33;2.80;;;;;;;;;;5089255;28;20560;-71
2023/05/07 13:06:15;;;;;;;4.03;2.73;;;;;;;;;;5090803;28;20452;-69
2023/05/07 13:08:48;;;;;;;5.43;3.50;;;;;;;;;;5090493;28;20436;-70
2023/05/07 13:11:29;;;;;;;5.03;3.07;;;;;;;;;;5089086;28;20444;-70
2023/05/07 13:14:02;;;;;;;5.03;2.70;;;;;;;;;;5083513;28;21142;-70
2023/05/07 13:16:49;;;;;;;4.47;2.27;;;;;;;;;;5087848;28;20467;-70
2023/05/07 13:19:19;;;;;;;4.40;2.70;;;;;;;;;;5093112;28;20563;-69
2023/05/07 13:22:02;;;;;;;9.00;4.30;;;;;;;;;;5088067;28;20471;-70
2023/05/07 13:24:41;;;;;;;5.77;3.13;;;;;;;;;;5093784;28;20444;-72
2023/05/07 13:27:11;;;;;;;5.10;2.90;;;;;;;;;;5091442;28;20506;-69
2023/05/07 13:30:01;;;;;;;4.10;2.90;;;;;;;;;;5087877;28;20921;-70
2023/05/07 13:33:01;;;;;;;3.63;2.30;;;;;;;;;;5091554;28;20824;-70
2023/05/07 13:35:41;;;;;;;3.90;3.00;;;;;;;;;;5092267;28;20464;-71
2023/05/07 13:38:12;;;;;;;5.93;3.07;;;;;;;;;;5093482;28;20519;-70
2023/05/07 13:40:44;;;;;;;4.17;2.67;;;;;;;;;;5094184;28;20761;-71
2023/05/07 13:43:19;;;;;;;5.13;2.47;;;;;;;;;;5094309;28;20599;-70
2023/05/07 13:46:03;;;;;;;5.73;2.83;;;;;;;;;;5092635;28;20464;-70
2023/05/07 13:48:42;;;;;;;3.60;2.30;;;;;;;;;;5093593;28;20451;-70
2023/05/07 13:51:11;;;;;;;4.23;2.20;;;;;;;;;;5091407;28;20920;-69
2023/05/07 13:54:02;;;;;;;3.00;2.30;;;;;;;;;;5089692;28;20847;-70
2023/05/07 13:59:31;;;;;;;6.80;2.83;;;;;;;;;;5087191;28;20551;-70
2023/05/07 14:02:00;;;;;;;3.00;1.97;;;;;;;;;;5096573;28;20444;-70
2023/05/07 14:04:41;;;;;;;5.63;2.50;;;;;;;;;;5077037;28;20809;-70
2023/05/07 14:07:22;;;;;;;3.40;2.20;;;;;;;;;;5098580;28;20875;-70
2023/05/07 14:09:52;;;;;;;5.73;2.87;;;;;;;;;;5098019;28;20471;-70
2023/05/07 14:12:21;;;;;;;4.33;2.30;;;;;;;;;;5097087;28;20860;-70
2023/05/07 14:15:10;;;;;;;5.27;3.20;;;;;;;;;;5094314;28;20460;-74
2023/05/07 14:17:50;;;;;;;4.23;2.60;;;;;;;;;;5083351;28;20567;-71
2023/05/07 14:20:21;;;;;;;3.53;2.40;;;;;;;;;;5099429;28;20463;-69
2023/05/07 14:22:50;;;;;;;3.60;2.63;;;;;;;;;;5098924;28;20474;-70
2023/05/07 14:25:30;;;;;;;3.03;2.20;;;;;;;;;;5092693;28;20563;-70
2023/05/07 14:28:01;;;;;;;2.63;1.73;;;;;;;;;;5096839;28;21013;-71
2023/05/07 14:30:31;;;;;;;4.60;2.73;;;;;;;;;;5083016;28;20443;-71
2023/05/07 14:33:03;;;;;;;3.20;1.90;;;;;;;;;;5097419;28;20926;-70
2023/05/07 14:35:33;;;;;;;3.20;1.77;;;;;;;;;;5097186;28;20520;-70
2023/05/07 14:38:03;;;;;;;3.63;1.70;;;;;;;;;;5095126;28;20544;-71
2023/05/07 14:40:34;;;;;;;4.60;3.20;;;;;;;;;;5097813;28;20452;-71
2023/05/07 14:43:05;;;;;;;5.30;2.40;;;;;;;;;;5097328;28;20559;-71
2023/05/07 14:45:34;;;;;;;5.23;2.70;;;;;;;;;;5098672;28;20946;-71
2023/05/07 14:48:09;;;;;;;5.60;2.87;;;;;;;;;;5097038;28;20448;-69
2023/05/07 14:50:40;;;;;;;4.40;2.50;;;;;;;;;;5093785;28;20536;-70
2023/05/07 14:53:09;;;;;;;6.80;3.70;;;;;;;;;;5098428;28;20456;-70
2023/05/07 14:55:43;;;;;;;3.70;2.07;;;;;;;;;;5094125;28;20476;-71
2023/05/07 14:58:13;;;;;;;4.13;2.20;;;;;;;;;;5090480;28;20486;-71
2023/05/07 15:00:46;;;;;;;2.60;2.17;;;;;;;;;;5092279;28;20444;-71
2023/05/07 15:03:21;;;;;;;2.70;2.00;;;;;;;;;;5095727;28;20523;-70
2023/05/07 15:05:51;;;;;;;5.03;2.87;;;;;;;;;;5082094;28;21011;-71
2023/05/07 15:08:27;;;;;;;3.47;2.20;;;;;;;;;;5075236;28;20437;-70
2023/05/07 15:11:04;;;;;;;3.53;2.43;;;;;;;;;;5096081;28;20587;-71
2023/05/07 15:13:40;;;;;;;4.30;1.70;;;;;;;;;;5096159;28;20459;-69
2023/05/07 15:16:11;;;;;;;3.53;2.13;;;;;;;;;;5097824;28;20536;-69
2023/05/07 15:18:40;;;;;;;2.40;1.70;;;;;;;;;;5096683;28;20714;-69
2023/05/07 15:21:16;;;;;;;3.13;2.10;;;;;;;;;;5095698;28;20452;-69
2023/05/07 15:23:47;;;;;;;3.80;2.23;;;;;;;;;;5096845;28;20832;-70
2023/05/07 15:26:21;;;;;;;3.43;2.00;;;;;;;;;;5096295;28;20966;-71